Time;durP1;ratioP1;P1;durP2;ratioP2;P2;SDS_P1;SDS_P2;PMS_P1;PMS_P2;Temp;Humidity;BMP_temperature;BMP_pressure;BME280_temperature;BME280_humidity;BME280_pressure;Samples;Min_cycle;Max_cycle;Signal;HPM_P1;HPM_P2
2022/12/21 00:02:03;;;;;;;;;1.00;1.00;;;;;15.20;59.84;100628.31;5042958;28;45256;-66
2022/12/21 00:04:28;;;;;;;;;11.67;11.00;;;;;14.92;59.98;100577.06;5044116;28;45487;-68
2022/12/21 00:06:54;;;;;;;;;30.25;27.00;;;;;15.17;60.31;100633.53;5045509;28;45479;-67
2022/12/21 00:09:20;;;;;;;;;9.00;8.00;;;;;15.07;60.72;100622.00;5044661;28;45296;-67
2022/12/21 00:11:46;;;;;;;;;2.67;2.67;;;;;15.02;61.18;100631.59;5045584;28;45555;-67
2022/12/21 00:14:11;;;;;;;;;1.33;1.33;;;;;15.04;60.87;100635.13;5049678;28;45502;-67
2022/12/21 00:16:39;;;;;;;;;1.67;1.00;;;;;14.80;61.35;100619.00;5046205;28;45481;-66
2022/12/21 00:19:05;;;;;;;;;1.00;1.00;;;;;14.96;60.80;100646.41;5046968;28;46106;-66
2022/12/21 00:21:34;;;;;;;;;0.00;0.00;;;;;14.93;61.04;100646.38;5043898;28;45273;-67
2022/12/21 00:24:00;;;;;;;;;1.00;1.00;;;;;14.96;61.15;100641.13;5044969;28;45508;-67
2022/12/21 00:26:28;;;;;;;;;2.33;1.00;;;;;14.67;61.72;100596.91;5048956;28;45447;-67
2022/12/21 00:28:54;;;;;;;;;3.50;3.50;;;;;14.87;61.74;100640.16;5052070;28;46065;-67
2022/12/21 00:31:23;;;;;;;;;2.00;2.00;;;;;14.79;62.58;100638.28;5045121;28;45585;-67
2022/12/21 00:33:49;;;;;;;;;1.00;1.00;;;;;14.76;61.91;100646.13;5048404;28;45630;-67
2022/12/21 00:36:17;;;;;;;;;1.00;1.00;;;;;14.75;62.08;100641.75;5044096;28;46149;-67
2022/12/21 00:38:44;;;;;;;;;1.00;1.00;;;;;14.64;63.36;100646.81;5059409;28;45410;-67
2022/12/21 00:41:13;;;;;;;;;2.00;2.00;;;;;14.53;64.74;100650.13;5047473;28;45478;-73
2022/12/21 00:43:40;;;;;;;;;2.00;2.00;;;;;14.44;65.50;100647.38;5056709;28;45530;-66
2022/12/21 00:46:06;;;;;;;;;2.00;2.00;;;;;14.34;66.47;100661.22;5050198;28;45531;-67
2022/12/21 00:48:35;;;;;;;;;3.00;2.67;;;;;14.31;66.87;100658.56;5050605;28;46158;-68
2022/12/21 00:51:13;;;;;;;;;1.00;1.00;;;;;14.31;68.62;100669.06;5046779;28;45875;-67
2022/12/21 00:53:39;;;;;;;;;1.00;1.00;;;;;14.30;68.07;100667.28;5050125;28;45496;-67
2022/12/21 00:56:07;;;;;;;;;1.00;1.00;;;;;14.25;68.90;100664.59;5046395;28;45514;-67
2022/12/21 00:58:34;;;;;;;;;2.00;1.00;;;;;14.21;69.88;100654.00;5055130;28;45426;-74
2022/12/21 01:01:04;;;;;;;;;2.33;2.00;;;;;13.96;70.93;100631.66;5048783;28;45538;-66
2022/12/21 01:03:30;;;;;;;;;1.00;1.00;;;;;14.20;71.02;100674.13;5052278;28;45449;-67
2022/12/21 01:05:56;;;;;;;;;1.33;1.00;;;;;14.20;71.86;100668.88;5059065;28;45436;-66
2022/12/21 01:08:24;;;;;;;;;1.00;1.00;;;;;14.18;71.47;100660.06;5047917;28;46246;-67
2022/12/21 01:10:49;;;;;;;;;2.00;2.00;;;;;14.25;71.42;100667.22;5049064;28;45511;-76
2022/12/21 01:13:16;;;;;;;;;1.67;1.00;;;;;14.24;71.49;100659.28;5048187;28;45602;-67
2022/12/21 01:15:46;;;;;;;;;1.00;1.00;;;;;14.22;70.88;100637.38;5051287;28;45420;-67
2022/12/21 01:18:13;;;;;;;;;1.00;0.00;;;;;14.28;70.78;100651.50;5047833;28;46213;-76
2022/12/21 01:20:40;;;;;;;;;1.00;1.00;;;;;14.28;71.48;100653.22;5052089;28;46358;-66
2022/12/21 01:23:06;;;;;;;;;1.33;1.00;;;;;14.28;70.94;100655.84;5052999;28;45513;-75
2022/12/21 01:25:32;;;;;;;;;1.33;1.00;;;;;14.05;71.79;100606.44;5049221;28;46087;-75
2022/12/21 01:27:57;;;;;;;;;1.00;1.00;;;;;14.20;71.55;100620.69;5048205;28;45314;-67
2022/12/21 01:30:23;;;;;;;;;2.00;1.00;;;;;14.20;71.12;100629.44;5052554;28;45629;-66
2022/12/21 01:32:48;;;;;;;;;1.00;1.00;;;;;14.12;71.80;100623.19;5054103;28;45561;-66
2022/12/21 01:35:14;;;;;;;;;0.00;0.00;;;;;13.86;71.83;100588.59;5046344;28;45698;-66
2022/12/21 01:37:39;;;;;;;;;1.00;1.00;;;;;13.96;72.03;100615.91;5047823;28;46115;-74
2022/12/21 01:40:05;;;;;;;;;1.00;1.00;;;;;13.87;72.76;100608.78;5049958;28;45611;-75
2022/12/21 01:42:31;;;;;;;;;1.00;1.00;;;;;13.43;72.94;100549.38;5047580;28;45417;-72
2022/12/21 01:45:27;;;;;;;;;1.33;1.33;;;;;13.69;73.26;100599.72;5048175;28;45468;-71
2022/12/21 01:48:05;;;;;;;;;1.00;1.00;;;;;13.36;73.06;100549.22;5046920;28;45514;-68
2022/12/21 01:50:56;;;;;;;;;1.00;1.00;;;;;13.59;73.34;100587.28;5055198;28;45334;-67
2022/12/21 01:53:30;;;;;;;;;1.33;0.67;;;;;13.34;73.50;100562.31;5051929;28;45484;-76
2022/12/21 01:55:59;;;;;;;;;1.33;0.67;;;;;13.35;74.10;100595.56;5049338;28;45504;-66
2022/12/21 01:58:27;;;;;;;;;1.00;0.67;;;;;13.28;74.45;100586.66;5052005;28;45394;-71
2022/12/21 02:00:55;;;;;;;;;1.67;0.00;;;;;13.23;74.33;100597.91;5052153;28;45414;-67
2022/12/21 02:03:23;;;;;;;;;2.00;1.00;;;;;13.16;75.12;100604.78;5047746;28;45521;-71
2022/12/21 02:06:03;;;;;;;;;2.00;1.00;;;;;13.11;75.50;100603.78;5048466;28;45532;-67
2022/12/21 02:08:29;;;;;;;;;1.00;1.00;;;;;13.06;75.34;100606.31;5053850;28;45227;-67
2022/12/21 02:10:58;;;;;;;;;1.33;1.00;;;;;13.03;74.61;100603.66;5051854;28;45523;-67
2022/12/21 02:13:23;;;;;;;;;2.33;1.00;;;;;12.99;75.65;100614.00;5046712;28;45299;-68
2022/12/21 02:15:58;;;;;;;;;0.33;0.00;;;;;12.93;75.03;100613.06;5054636;28;45447;-67
2022/12/21 02:21:58;;;;;;;;;2.00;1.00;;;;;12.81;74.89;100611.88;5048206;28;45337;-67
2022/12/21 02:24:35;;;;;;;;;1.00;1.00;;;;;12.76;74.65;100609.16;5054297;28;45571;-67
2022/12/21 02:27:01;;;;;;;;;1.00;1.00;;;;;12.70;74.61;100614.28;5045096;28;45528;-68
2022/12/21 02:29:55;;;;;;;;;1.00;1.00;;;;;12.62;75.27;100615.84;5048569;28;46122;-67
2022/12/21 02:32:33;;;;;;;;;1.00;1.00;;;;;12.48;75.57;100612.91;5040285;28;45722;-67
2022/12/21 02:35:15;;;;;;;;;1.00;1.00;;;;;12.33;75.66;100611.72;5044196;28;45480;-67
2022/12/21 02:37:43;;;;;;;;;2.00;2.00;;;;;12.06;75.68;100570.00;5049176;28;45405;-67
2022/12/21 02:40:12;;;;;;;;;1.00;1.00;;;;;12.27;76.59;100605.41;5046385;28;45507;-67
2022/12/21 02:45:53;;;;;;;;;1.00;1.00;;;;;12.14;75.93;100594.66;5046851;28;45371;-67
2022/12/21 02:48:27;;;;;;;;;1.00;1.00;;;;;12.19;76.21;100609.59;5049854;28;45512;-67
2022/12/21 02:50:59;;;;;;;;;1.00;1.00;;;;;12.15;75.82;100619.09;5047215;28;45440;-67
2022/12/21 02:53:32;;;;;;;;;1.00;1.00;;;;;12.13;75.61;100620.78;5044263;28;45449;-67
2022/12/21 02:55:58;;;;;;;;;1.33;1.00;;;;;12.11;74.72;100618.13;5045111;28;46156;-67
2022/12/21 02:58:24;;;;;;;;;2.00;1.33;;;;;11.90;73.65;100594.94;5046497;28;45373;-67
2022/12/21 03:00:53;;;;;;;;;1.00;1.00;;;;;12.04;73.05;100623.19;5050082;28;46051;-67
2022/12/21 03:06:27;;;;;;;;;2.00;2.00;;;;;11.96;72.15;100620.38;5050304;28;45295;-66
2022/12/21 03:09:03;;;;;;;;;1.33;1.00;;;;;11.89;72.13;100613.22;5057152;28;45451;-66
2022/12/21 03:11:55;;;;;;;;;1.00;1.00;;;;;11.80;72.58;100621.69;5048449;28;46006;-67
2022/12/21 03:14:52;;;;;;;;;1.00;1.00;;;;;11.74;72.77;100617.19;5051032;28;45737;-67
2022/12/21 03:17:25;;;;;;;;;3.00;2.00;;;;;11.73;72.82;100630.22;5048594;28;45735;-67
2022/12/21 03:19:59;;;;;;;;;1.00;1.00;;;;;11.65;72.33;100627.38;5044266;28;45558;-67
2022/12/21 03:22:38;;;;;;;;;1.00;0.00;;;;;11.35;72.57;100588.22;5048312;28;45476;-66
2022/12/21 03:25:10;;;;;;;;;1.33;1.33;;;;;11.54;72.37;100634.09;5053251;28;45348;-66
2022/12/21 03:27:45;;;;;;;;;2.33;2.00;;;;;11.47;72.47;100635.63;5042864;28;45539;-65
2022/12/21 03:30:16;;;;;;;;;1.67;1.00;;;;;11.43;71.98;100636.38;5051184;28;45395;-68
2022/12/21 03:33:14;;;;;;;;;0.33;0.33;;;;;11.48;71.45;100633.88;5047363;28;45534;-67
2022/12/21 03:35:44;;;;;;;;;1.00;1.00;;;;;11.55;71.09;100633.22;5036410;28;45525;-66
2022/12/21 03:38:26;;;;;;;;;2.00;2.00;;;;;11.59;71.25;100628.97;5037629;28;45471;-67
2022/12/21 03:40:56;;;;;;;;;2.00;1.00;;;;;11.62;71.36;100627.31;5037434;28;45556;-67
2022/12/21 03:43:27;;;;;;;;;2.00;1.00;;;;;11.62;71.17;100632.56;5050758;28;45635;-66
2022/12/21 03:45:57;;;;;;;;;4.00;3.00;;;;;11.63;70.93;100633.44;5057144;28;45446;-67
2022/12/21 03:48:45;;;;;;;;;1.00;1.00;;;;;11.62;70.61;100616.84;5056260;28;45516;-66
2022/12/21 03:51:54;;;;;;;;;2.00;2.00;;;;;11.65;70.62;100619.53;5057559;28;45627;-67
2022/12/21 03:54:39;;;;;;;;;10.75;8.00;;;;;11.69;70.05;100626.63;5056664;28;45400;-66
2022/12/21 03:57:07;;;;;;;;;47.50;36.25;;;;;11.72;70.12;100628.47;5044594;28;45292;-66
2022/12/21 03:59:38;;;;;;;;;2.00;2.00;;;;;11.83;69.20;100628.72;5052641;28;45491;-67
2022/12/21 04:02:20;;;;;;;;;3.00;2.00;;;;;11.82;67.68;100603.41;5041345;28;45450;-66
2022/12/21 04:04:59;;;;;;;;;3.50;2.50;;;;;12.11;67.88;100630.34;5045017;28;45867;-75
2022/12/21 04:07:27;;;;;;;;;2.50;2.00;;;;;12.18;67.57;100628.78;5052433;28;45436;-75
2022/12/21 04:10:05;;;;;;;;;9.25;7.00;;;;;12.24;67.29;100624.56;5040377;28;45416;-67
2022/12/21 04:12:36;;;;;;;;;6.00;4.00;;;;;12.30;66.94;100629.97;5055638;28;45505;-68
2022/12/21 04:15:18;;;;;;;;;6.00;6.00;;;;;12.33;66.84;100629.13;5055937;28;45606;-67
2022/12/21 04:17:46;;;;;;;;;5.25;5.00;;;;;12.37;66.64;100615.25;5056181;28;45210;-67
2022/12/21 04:20:21;;;;;;;;;7.00;7.00;;;;;12.38;66.40;100610.94;5039179;28;45680;-76
2022/12/21 04:28:24;;;;;;;;;6.50;5.25;;;;;12.38;66.37;100589.97;5051760;28;45438;-67
2022/12/21 04:30:50;;;;;;;;;5.00;5.00;;;;;12.38;66.40;100566.41;5043958;28;45371;-66
2022/12/21 04:33:18;;;;;;;;;3.25;2.50;;;;;12.39;66.42;100576.00;5054804;28;45442;-67
2022/12/21 04:38:31;;;;;;;;;8.00;6.75;;;;;12.39;66.10;100576.00;5056099;28;45539;-66
2022/12/21 04:40:57;;;;;;;;;13.00;12.00;;;;;12.39;65.92;100584.75;5050664;28;45533;-66
2022/12/21 04:43:24;;;;;;;;;5.00;5.00;;;;;12.41;65.78;100585.66;5051268;28;45184;-65
2022/12/21 04:45:49;;;;;;;;;3.25;2.25;;;;;12.42;65.69;100576.97;5052977;28;46272;-67
2022/12/21 04:48:16;;;;;;;;;4.75;4.00;;;;;12.43;65.59;100583.09;5042226;28;45490;-67
2022/12/21 04:50:42;;;;;;;;;4.00;3.00;;;;;12.42;65.39;100582.22;5057214;28;45372;-66
2022/12/21 04:53:08;;;;;;;;;3.33;3.33;;;;;12.39;65.57;100569.03;5056597;28;45424;-67
2022/12/21 04:55:34;;;;;;;;;5.00;5.00;;;;;12.44;65.53;100577.00;5056667;28;45370;-67
2022/12/21 04:58:00;;;;;;;;;12.50;10.25;;;;;12.44;65.25;100570.03;5056558;28;45361;-67
2022/12/21 05:00:25;;;;;;;;;3.25;3.25;;;;;12.42;65.43;100569.09;5071658;28;45434;-67
2022/12/21 05:02:51;;;;;;;;;5.00;4.00;;;;;12.41;65.43;100567.31;5055702;28;45226;-67
2022/12/21 05:05:16;;;;;;;;;0.33;0.33;;;;;12.41;65.47;100567.31;5055479;28;45659;-75
2022/12/21 05:07:42;;;;;;;;;1.67;1.67;;;;;12.39;65.46;100561.16;5041528;28;45357;-72
2022/12/21 05:10:08;;;;;;;;;1.33;1.00;;;;;12.38;65.42;100572.50;5055348;28;45170;-73
2022/12/21 05:12:34;;;;;;;;;2.00;2.00;;;;;12.37;65.18;100575.97;5055662;28;45685;-67
2022/12/21 05:15:00;;;;;;;;;2.00;2.00;;;;;12.36;65.30;100578.56;5054804;28;45241;-68
2022/12/21 05:17:25;;;;;;;;;1.00;1.00;;;;;12.34;65.24;100591.63;5054678;28;45697;-67
2022/12/21 05:19:50;;;;;;;;;2.00;1.00;;;;;12.34;65.44;100597.75;5054557;28;45867;-67
2022/12/21 05:22:17;;;;;;;;;4.25;4.00;;;;;12.37;65.06;100604.78;5058515;28;45481;-70
2022/12/21 05:24:44;;;;;;;;;2.33;1.00;;;;;12.42;64.73;100603.16;5059205;28;46123;-67
2022/12/21 05:27:10;;;;;;;;;3.00;2.00;;;;;12.50;64.34;100614.72;5043435;28;45399;-67
2022/12/21 05:29:36;;;;;;;;;4.00;4.00;;;;;12.59;64.11;100614.03;5041520;28;45358;-70
2022/12/21 05:32:01;;;;;;;;;6.50;6.50;;;;;12.68;63.88;100613.38;5059022;28;45357;-67
2022/12/21 05:34:27;;;;;;;;;2.00;2.00;;;;;12.78;63.39;100617.06;5058681;28;46033;-67
2022/12/21 05:36:52;;;;;;;;;1.00;1.00;;;;;12.92;62.62;100613.88;5058138;28;45499;-68
2022/12/21 05:39:18;;;;;;;;;1.67;1.67;;;;;12.98;62.32;100607.91;5052338;28;45282;-69
2022/12/21 05:41:43;;;;;;;;;1.33;1.33;;;;;13.04;62.37;100605.41;5056550;28;45334;-68
2022/12/21 05:44:09;;;;;;;;;2.00;2.00;;;;;13.06;62.57;100603.69;5058076;28;46019;-69
2022/12/21 05:46:36;;;;;;;;;1.33;1.00;;;;;12.92;62.38;100581.56;5058013;28;45527;-72
2022/12/21 05:49:01;;;;;;;;;1.00;1.00;;;;;13.07;62.13;100596.69;5058247;28;45728;-70
2022/12/21 05:51:27;;;;;;;;;3.00;2.00;;;;;13.15;61.89;100616.13;5052253;28;45552;-70
2022/12/21 05:53:53;;;;;;;;;3.00;3.00;;;;;13.12;61.89;100614.31;5040475;28;45818;-69
2022/12/21 05:56:19;;;;;;;;;3.00;3.00;;;;;13.15;61.95;100608.25;5059257;28;45531;-68
2022/12/21 05:58:45;;;;;;;;;2.67;1.33;;;;;13.17;62.15;100605.66;5058986;28;45401;-66
2022/12/21 06:01:12;;;;;;;;;2.00;1.00;;;;;13.19;61.30;100596.97;5050056;28;45588;-66
2022/12/21 06:03:39;;;;;;;;;2.00;1.33;;;;;13.30;61.16;100591.97;5038874;28;45603;-67
2022/12/21 06:06:13;;;;;;;;;3.00;3.00;;;;;13.28;61.14;100589.28;5038751;28;45390;-69
2022/12/21 06:08:39;;;;;;;;;2.00;1.33;;;;;13.27;61.24;100591.84;5055702;28;45625;-70
2022/12/21 06:11:10;;;;;;;;;2.00;2.00;;;;;13.25;61.84;100593.56;5058423;28;45472;-69
2022/12/21 06:13:36;;;;;;;;;1.67;1.67;;;;;13.27;61.24;100595.38;5058855;28;46172;-66
2022/12/21 06:16:07;;;;;;;;;0.00;0.00;;;;;13.29;61.42;100587.53;5058372;28;45409;-69
2022/12/21 06:18:33;;;;;;;;;2.00;1.00;;;;;13.26;61.63;100601.47;5041897;28;45444;-70
2022/12/21 06:20:58;;;;;;;;;4.00;3.00;;;;;13.23;61.71;100606.69;5057615;28;45535;-68
2022/12/21 06:23:24;;;;;;;;;2.33;2.33;;;;;13.19;61.79;100604.84;5054411;28;46329;-69
2022/12/21 06:25:57;;;;;;;;;3.67;3.00;;;;;13.21;61.89;100607.47;5052597;28;45499;-73
2022/12/21 06:28:24;;;;;;;;;2.00;2.00;;;;;13.19;61.92;100602.22;5054027;28;45449;-73
2022/12/21 06:30:51;;;;;;;;;1.00;1.00;;;;;13.13;62.07;100595.13;5055247;28;45563;-73
2022/12/21 06:33:18;;;;;;;;;2.00;2.00;;;;;13.20;61.55;100596.09;5056131;28;46090;-76
2022/12/21 06:35:44;;;;;;;;;1.00;1.00;;;;;13.21;61.90;100594.34;5056401;28;45470;-76
2022/12/21 06:38:09;;;;;;;;;1.00;1.00;;;;;13.18;61.31;100587.31;5055935;28;45412;-74
2022/12/21 06:40:35;;;;;;;;;2.00;2.00;;;;;13.24;61.74;100594.44;5052417;28;45648;-75
2022/12/21 06:43:01;;;;;;;;;2.00;1.00;;;;;13.30;61.27;100590.22;5054140;28;46029;-75
2022/12/21 06:45:26;;;;;;;;;3.25;3.25;;;;;13.34;61.31;100591.16;5056260;28;45469;-75
2022/12/21 06:47:54;;;;;;;;;1.33;1.00;;;;;13.37;61.06;100600.81;5055027;28;45499;-68
2022/12/21 06:50:21;;;;;;;;;1.00;1.00;;;;;13.38;60.93;100600.88;5055607;28;46429;-67
2022/12/21 06:52:48;;;;;;;;;1.00;0.67;;;;;13.36;61.17;100602.56;5053599;28;45585;-69
2022/12/21 06:55:13;;;;;;;;;1.33;1.00;;;;;13.32;61.20;100598.13;5055330;28;45851;-74
2022/12/21 06:57:39;;;;;;;;;0.00;0.00;;;;;13.28;60.93;100583.16;5054546;28;45631;-68
2022/12/21 07:00:05;;;;;;;;;1.00;1.00;;;;;13.34;61.19;100593.78;5053006;28;45501;-73
2022/12/21 07:02:31;;;;;;;;;1.00;1.00;;;;;13.36;61.23;100588.59;5053439;28;45393;-68
2022/12/21 07:04:57;;;;;;;;;1.00;1.00;;;;;13.33;61.02;100578.91;5054477;28;45613;-74
2022/12/21 07:07:23;;;;;;;;;3.00;2.75;;;;;13.16;61.04;100551.44;5055914;28;45363;-69
2022/12/21 07:09:48;;;;;;;;;1.00;1.00;;;;;13.31;60.81;100583.25;5057137;28;45540;-73
2022/12/21 07:12:14;;;;;;;;;1.00;0.33;;;;;13.37;60.47;100580.75;5054980;28;45543;-75
2022/12/21 07:14:39;;;;;;;;;1.00;1.00;;;;;13.35;60.38;100585.09;5053199;28;45522;-75
2022/12/21 07:17:05;;;;;;;;;0.00;0.00;;;;;13.39;60.31;100592.16;5053985;28;45396;-74
2022/12/21 07:19:31;;;;;;;;;0.00;0.00;;;;;13.39;60.14;100596.50;5053753;28;45805;-75
2022/12/21 07:21:56;;;;;;;;;2.00;1.00;;;;;13.37;60.15;100598.19;5054805;28;45563;-73
2022/12/21 07:24:22;;;;;;;;;1.00;1.00;;;;;13.35;60.62;100598.19;5055184;28;45570;-74
2022/12/21 07:26:47;;;;;;;;;3.00;3.00;;;;;13.31;60.65;100594.63;5054837;28;45484;-70
2022/12/21 07:29:13;;;;;;;;;2.00;2.00;;;;;13.30;60.49;100610.31;5056960;28;45476;-72
2022/12/21 07:31:38;;;;;;;;;2.67;2.67;;;;;13.26;60.76;100595.34;5054282;28;48570;-74
2022/12/21 07:34:04;;;;;;;;;4.00;3.33;;;;;13.22;60.85;100601.41;5055900;28;45299;-75
2022/12/21 07:36:29;;;;;;;;;5.00;4.00;;;;;13.20;61.11;100601.34;5052669;28;45341;-73
2022/12/21 07:38:55;;;;;;;;;3.00;3.00;;;;;13.13;60.90;100581.13;5052311;28;45307;-73
2022/12/21 07:41:22;;;;;;;;;3.67;3.33;;;;;13.16;60.53;100591.66;5054304;28;46245;-73
2022/12/21 07:43:48;;;;;;;;;3.00;3.00;;;;;13.18;60.82;100592.56;5055784;28;46678;-74
2022/12/21 07:46:14;;;;;;;;;2.00;2.00;;;;;13.31;60.20;100575.38;5055582;28;45475;-75
2022/12/21 07:48:40;;;;;;;;;1.00;1.00;;;;;13.37;59.72;100575.50;5055273;28;46983;-73
2022/12/21 07:51:06;;;;;;;;;1.00;1.00;;;;;13.46;59.25;100574.78;5055712;28;46027;-75
2022/12/21 07:53:33;;;;;;;;;3.00;2.67;;;;;13.48;59.49;100586.19;5056253;28;45454;-73
2022/12/21 07:56:12;;;;;;;;;2.00;2.00;;;;;13.50;59.20;100597.59;5056635;28;45263;-74
2022/12/21 07:58:38;;;;;;;;;2.00;2.00;;;;;13.48;59.45;100591.44;5047124;28;45413;-73
2022/12/21 08:01:06;;;;;;;;;2.00;2.00;;;;;13.53;59.58;100582.78;5055663;28;45642;-74
2022/12/21 08:03:32;;;;;;;;;3.25;2.25;;;;;13.63;59.38;100565.47;5054188;28;45412;-73
2022/12/21 08:05:58;;;;;;;;;2.33;2.33;;;;;13.71;59.13;100577.00;5041854;28;45330;-75
2022/12/21 08:08:23;;;;;;;;;8.00;6.00;;;;;13.76;59.06;100597.19;5047331;28;45670;-72
2022/12/21 08:10:49;;;;;;;;;4.75;4.25;;;;;13.86;59.19;100607.00;5050124;28;46159;-74
2022/12/21 08:13:14;;;;;;;;;9.00;6.25;;;;;13.68;58.97;100558.53;5055500;28;45822;-75
2022/12/21 08:15:39;;;;;;;;;4.75;4.00;;;;;14.07;58.49;100612.63;5055953;28;45336;-75
2022/12/21 08:18:05;;;;;;;;;1.00;1.00;;;;;13.96;58.22;100574.78;5047403;28;45480;-74
2022/12/21 08:20:30;;;;;;;;;2.00;2.00;;;;;14.27;57.94;100605.06;5048882;28;45318;-74
2022/12/21 08:22:56;;;;;;;;;1.00;1.00;;;;;14.37;57.40;100598.19;5039048;28;45349;-73
2022/12/21 08:25:21;;;;;;;;;3.00;2.00;;;;;14.47;57.26;100605.38;5051630;28;45706;-73
2022/12/21 08:27:47;;;;;;;;;2.00;2.00;;;;;14.58;57.42;100609.91;5059826;28;45506;-74
2022/12/21 08:30:14;;;;;;;;;1.75;1.00;;;;;14.64;57.22;100608.28;5049603;28;45929;-73
2022/12/21 08:32:39;;;;;;;;;7.25;5.75;;;;;14.63;57.00;100582.84;5055840;28;45396;-74
2022/12/21 08:35:05;;;;;;;;;1.00;1.00;;;;;14.73;56.27;100573.34;5055840;28;45388;-73
2022/12/21 08:37:31;;;;;;;;;2.33;1.00;;;;;14.97;56.14;100598.19;5037175;28;45416;-74
2022/12/21 08:39:56;;;;;;;;;1.00;1.00;;;;;14.98;55.55;100589.41;5035845;28;46239;-73
2022/12/21 08:42:22;;;;;;;;;3.00;3.00;;;;;15.20;55.23;100609.91;5046652;28;45485;-72
2022/12/21 08:44:48;;;;;;;;;0.33;0.33;;;;;15.29;54.86;100611.75;5049103;28;46119;-74
2022/12/21 08:47:13;;;;;;;;;1.00;1.00;;;;;15.39;54.56;100610.97;5036319;28;45185;-73
2022/12/21 08:49:39;;;;;;;;;1.00;1.00;;;;;15.54;54.42;100625.16;5049385;28;45580;-74
2022/12/21 08:52:05;;;;;;;;;6.00;6.00;;;;;15.64;54.46;100625.31;5055472;28;45506;-73
2022/12/21 08:54:31;;;;;;;;;6.00;5.00;;;;;15.78;54.47;100638.66;5055418;28;45491;-72
2022/12/21 08:56:56;;;;;;;;;3.00;3.00;;;;;15.87;53.30;100645.75;5056516;28;45429;-70
2022/12/21 08:59:22;;;;;;;;;11.33;6.00;;;;;15.86;53.60;100644.00;5058725;28;46029;-69
2022/12/21 09:01:47;;;;;;;;;3.00;2.67;;;;;15.71;53.73;100629.75;5058795;28;45442;-68
2022/12/21 09:04:13;;;;;;;;;1.67;1.33;;;;;15.80;53.72;100643.94;5059320;28;45518;-68
2022/12/21 09:06:39;;;;;;;;;7.67;3.00;;;;;15.80;53.60;100643.94;5042902;28;45725;-68
2022/12/21 09:09:04;;;;;;;;;2.00;2.00;;;;;15.65;53.95;100613.88;5047801;28;45878;-68
2022/12/21 09:11:32;;;;;;;;;1.00;1.00;;;;;15.75;53.99;100640.38;5058398;28;45445;-72
2022/12/21 09:13:58;;;;;;;;;1.00;1.00;;;;;15.57;54.09;100628.72;5058628;28;45379;-67
2022/12/21 09:16:24;;;;;;;;;0.00;0.00;;;;;15.60;54.21;100651.59;5058960;28;45461;-67
2022/12/21 09:18:50;;;;;;;;;2.00;2.00;;;;;15.32;54.29;100612.66;5058611;28;46128;-67
2022/12/21 09:21:19;;;;;;;;;3.33;2.00;;;;;15.58;54.46;100646.31;5042358;28;45377;-72
2022/12/21 09:23:45;;;;;;;;;5.00;4.00;;;;;15.84;54.21;100640.47;5043426;28;45383;-67
2022/12/21 09:26:11;;;;;;;;;1.33;1.33;;;;;16.78;52.68;100639.44;5058268;28;45574;-68
2022/12/21 09:28:37;;;;;;;;;10.00;7.00;;;;;17.47;51.42;100597.53;5058339;28;45842;-74
2022/12/21 09:31:18;;;;;;;;;3.33;2.00;;;;;18.37;49.17;100618.81;5057807;28;45500;-68
2022/12/21 09:33:44;;;;;;;;;1.00;1.00;;;;;18.88;48.72;100609.03;5052414;28;45401;-68
2022/12/21 09:36:12;;;;;;;;;3.00;1.33;;;;;19.31;47.69;100613.28;5048927;28;45470;-67
2022/12/21 09:38:38;;;;;;;;;1.00;1.00;;;;;19.62;46.26;100608.69;5058315;28;46305;-68
2022/12/21 09:41:06;;;;;;;;;1.00;1.00;;;;;19.85;45.67;100622.69;5056737;28;45579;-68
2022/12/21 09:43:58;;;;;;;;;1.00;1.00;;;;;20.08;45.17;100628.72;5058706;28;45445;-69
2022/12/21 09:46:25;;;;;;;;;2.67;2.00;;;;;20.27;45.00;100620.59;5058942;28;45644;-68
2022/12/21 09:48:55;;;;;;;;;5.00;3.00;;;;;20.51;44.51;100612.41;5054735;28;45515;-68
2022/12/21 09:51:26;;;;;;;;;2.00;1.00;;;;;20.65;43.03;100599.91;5042097;28;45659;-68
2022/12/21 09:54:16;;;;;;;;;1.00;1.00;;;;;20.62;43.80;100554.84;5056976;28;45317;-68
2022/12/21 09:56:47;;;;;;;;;2.33;2.00;;;;;20.92;42.78;100588.09;5053237;28;45525;-68
2022/12/21 09:59:17;;;;;;;;;4.67;3.00;;;;;20.97;43.08;100575.66;5040568;28;46192;-68
2022/12/21 10:02:03;;;;;;;;;3.00;2.00;;;;;20.92;43.50;100588.09;5057936;28;45509;-72
2022/12/21 10:05:03;;;;;;;;;4.33;3.00;;;;;20.80;43.45;100570.53;5043161;28;45449;-67
2022/12/21 10:07:56;;;;;;;;;2.00;1.00;;;;;20.82;43.70;100579.38;5057635;28;45605;-67
2022/12/21 10:10:46;;;;;;;;;1.33;1.33;;;;;20.89;43.23;100598.78;5056741;28;45418;-68
2022/12/21 10:13:51;;;;;;;;;1.00;1.00;;;;;20.81;43.87;100595.31;5057600;28;45385;-67
2022/12/21 10:16:44;;;;;;;;;1.00;1.00;;;;;20.89;44.03;100603.19;5044062;28;45528;-67
2022/12/21 10:19:27;;;;;;;;;2.00;2.00;;;;;20.90;44.18;100595.22;5057059;28;45505;-72
2022/12/21 10:21:56;;;;;;;;;1.00;1.00;;;;;21.01;42.84;100606.59;5057185;28;45511;-68
2022/12/21 10:24:28;;;;;;;;;3.00;2.00;;;;;21.02;42.93;100594.19;5053678;28;45207;-76
2022/12/21 10:27:17;;;;;;;;;1.00;1.00;;;;;21.05;42.68;100586.19;5053479;28;45734;-67
2022/12/21 10:29:48;;;;;;;;;2.00;2.00;;;;;20.91;43.30;100598.75;5057991;28;45315;-70
2022/12/21 10:32:14;;;;;;;;;1.00;1.00;;;;;20.90;43.19;100589.03;5056703;28;46034;-73
2022/12/21 10:34:46;;;;;;;;;2.00;2.00;;;;;20.90;43.09;100603.19;5042586;28;45441;-67
2022/12/21 10:37:16;;;;;;;;;2.33;2.00;;;;;20.87;43.29;100603.22;5057957;28;45522;-68
2022/12/21 10:39:43;;;;;;;;;1.00;1.00;;;;;20.89;42.84;100605.84;5057241;28;45591;-67
2022/12/21 10:42:44;;;;;;;;;0.33;0.33;;;;;20.89;43.75;100600.53;5056643;28;46516;-68
2022/12/21 10:45:14;;;;;;;;;1.00;1.00;;;;;20.95;43.38;100608.44;5046009;28;45421;-68
2022/12/21 10:47:40;;;;;;;;;1.33;1.33;;;;;20.86;43.82;100590.84;5053838;28;45663;-69
2022/12/21 10:50:29;;;;;;;;;1.00;1.00;;;;;21.03;43.08;100601.28;5057142;28;45462;-68
2022/12/21 10:52:57;;;;;;;;;0.00;0.00;;;;;21.12;43.04;100595.81;5046381;28;46308;-69
2022/12/21 10:55:22;;;;;;;;;1.00;1.00;;;;;21.11;43.55;100594.09;5037405;28;45781;-68
2022/12/21 10:58:04;;;;;;;;;1.67;1.67;;;;;21.05;43.48;100588.84;5053634;28;45585;-68
2022/12/21 11:00:33;;;;;;;;;2.00;2.00;;;;;21.03;43.33;100588.00;5046534;28;45444;-68
2022/12/21 11:03:25;;;;;;;;;2.00;2.00;;;;;20.98;43.35;100584.50;5057358;28;45346;-68
2022/12/21 11:05:51;;;;;;;;;2.33;1.00;;;;;20.89;43.39;100582.84;5036829;28;45527;-68
2022/12/21 11:08:26;;;;;;;;;0.00;0.00;;;;;20.58;42.93;100569.00;5046406;28;45570;-68
2022/12/21 11:10:55;;;;;;;;;1.00;1.00;;;;;20.49;43.94;100590.31;5056672;28;45487;-68
2022/12/21 11:13:24;;;;;;;;;1.33;1.00;;;;;20.40;43.93;100584.22;5056459;28;45425;-68
2022/12/21 11:16:04;;;;;;;;;1.00;1.00;;;;;20.35;44.12;100564.84;5056955;28;45558;-68
2022/12/21 11:18:35;;;;;;;;;0.33;0.33;;;;;20.44;43.97;100582.41;5056759;28;45361;-68
2022/12/21 11:21:03;;;;;;;;;1.00;1.00;;;;;20.49;44.10;100579.72;5056419;28;45476;-68
2022/12/21 11:23:29;;;;;;;;;0.00;0.00;;;;;20.52;43.77;100575.25;5056490;28;46145;-68
2022/12/21 11:25:55;;;;;;;;;0.00;0.00;;;;;20.57;43.71;100572.53;5056588;28;45471;-68
2022/12/21 11:28:22;;;;;;;;;0.00;0.00;;;;;20.55;43.59;100583.19;5056833;28;45438;-67
2022/12/21 11:31:04;;;;;;;;;1.00;1.00;;;;;20.45;43.60;100576.19;5040747;28;45350;-67
2022/12/21 11:33:30;;;;;;;;;1.00;0.00;;;;;20.16;43.32;100550.84;5056685;28;45342;-67
2022/12/21 11:36:16;;;;;;;;;0.00;0.00;;;;;20.37;44.00;100589.56;5044653;28;45374;-67
2022/12/21 11:38:42;;;;;;;;;1.00;1.00;;;;;20.44;44.18;100575.31;5043305;28;45460;-68
2022/12/21 11:41:16;;;;;;;;;2.33;1.00;;;;;20.51;43.70;100580.56;5052113;28;45596;-68
2022/12/21 11:43:48;;;;;;;;;1.33;0.33;;;;;20.44;43.46;100569.16;5052026;28;46049;-68
2022/12/21 11:46:21;;;;;;;;;0.00;0.00;;;;;20.55;42.98;100571.69;5055365;28;46584;-68
2022/12/21 11:49:15;;;;;;;;;1.00;1.00;;;;;20.54;43.61;100570.81;5055662;28;45394;-68
2022/12/21 11:51:45;;;;;;;;;0.33;0.33;;;;;20.59;42.49;100568.13;5046511;28;45285;-68
2022/12/21 11:54:11;;;;;;;;;0.00;0.00;;;;;20.62;42.90;100562.81;5048512;28;45577;-68
2022/12/21 11:56:55;;;;;;;;;0.00;0.00;;;;;20.60;42.57;100562.81;5037836;28;45567;-68